Time;durP1;ratioP1;P1;durP2;ratioP2;P2;SDS_P1;SDS_P2;PMS_P1;PMS_P2;Temp;Humidity;BMP_temperature;BMP_pressure;BME280_temperature;BME280_humidity;BME280_pressure;Samples;Min_cycle;Max_cycle;Signal;HPM_P1;HPM_P2
2023/03/07 00:02:04;;;;;;;50.67;17.38;;;;;;;;;;5027191;28;20033;-59
2023/03/07 00:04:29;;;;;;;50.03;18.38;;;;;;;;;;5026641;28;20065;-57
2023/03/07 00:06:55;;;;;;;53.00;18.38;;;;;;;;;;5025683;28;20033;-60
2023/03/07 00:09:21;;;;;;;47.45;17.77;;;;;;;;;;5025562;28;20049;-60
2023/03/07 00:11:46;;;;;;;54.70;18.30;;;;;;;;;;5026592;28;20033;-60
2023/03/07 00:14:11;;;;;;;52.42;18.52;;;;;;;;;;5026814;28;20460;-55
2023/03/07 00:16:37;;;;;;;54.45;18.88;;;;;;;;;;5027522;28;20030;-58
2023/03/07 00:19:02;;;;;;;48.88;18.40;;;;;;;;;;5025107;28;20160;-57
2023/03/07 00:21:31;;;;;;;50.70;18.73;;;;;;;;;;5025364;28;20386;-61
2023/03/07 00:23:56;;;;;;;51.42;18.48;;;;;;;;;;5026830;28;20036;-60
2023/03/07 00:26:22;;;;;;;54.88;18.08;;;;;;;;;;5025419;28;20029;-58
2023/03/07 00:28:49;;;;;;;56.92;19.90;;;;;;;;;;5026003;28;20026;-57
2023/03/07 00:31:14;;;;;;;51.70;17.17;;;;;;;;;;5026881;28;20021;-57
2023/03/07 00:33:40;;;;;;;56.47;18.88;;;;;;;;;;5027237;28;20040;-58
2023/03/07 00:36:07;;;;;;;53.03;18.02;;;;;;;;;;5022073;28;20038;-58
2023/03/07 00:38:32;;;;;;;57.45;17.67;;;;;;;;;;5033269;28;20094;-57
2023/03/07 00:40:58;;;;;;;48.00;18.15;;;;;;;;;;5026924;28;20033;-56
2023/03/07 00:43:23;;;;;;;52.90;18.08;;;;;;;;;;5023199;28;20101;-62
2023/03/07 00:45:49;;;;;;;48.72;16.73;;;;;;;;;;5025221;28;20482;-61
2023/03/07 00:48:14;;;;;;;53.42;17.20;;;;;;;;;;5023766;28;20099;-59
2023/03/07 00:50:39;;;;;;;48.83;17.73;;;;;;;;;;5024839;28;20107;-57
2023/03/07 00:53:05;;;;;;;49.08;17.77;;;;;;;;;;5027392;28;20432;-57
2023/03/07 00:55:30;;;;;;;54.03;18.52;;;;;;;;;;5036154;28;20080;-57
2023/03/07 00:57:56;;;;;;;48.90;17.33;;;;;;;;;;5023270;28;20403;-58
2023/03/07 01:00:21;;;;;;;48.15;18.17;;;;;;;;;;5026596;28;20053;-57
2023/03/07 01:02:46;;;;;;;54.20;18.90;;;;;;;;;;5027212;28;20116;-56
2023/03/07 01:05:12;;;;;;;52.20;18.48;;;;;;;;;;5026853;28;20133;-60
2023/03/07 01:07:37;;;;;;;48.70;17.65;;;;;;;;;;5023360;28;20486;-58
2023/03/07 01:10:02;;;;;;;48.95;16.70;;;;;;;;;;5023983;28;20410;-53
2023/03/07 01:12:28;;;;;;;48.97;17.38;;;;;;;;;;5025845;28;20120;-58
2023/03/07 01:14:54;;;;;;;56.17;19.73;;;;;;;;;;5024749;28;20048;-61
2023/03/07 01:17:19;;;;;;;48.75;17.17;;;;;;;;;;5022684;28;20025;-63
2023/03/07 01:19:44;;;;;;;48.00;17.17;;;;;;;;;;5024096;28;20238;-55
2023/03/07 01:22:10;;;;;;;49.00;17.88;;;;;;;;;;5006617;28;20029;-64
2023/03/07 01:24:35;;;;;;;46.17;16.67;;;;;;;;;;5025082;28;20092;-55
2023/03/07 01:27:00;;;;;;;50.55;16.58;;;;;;;;;;5023713;28;20115;-65
2023/03/07 01:29:26;;;;;;;50.03;17.02;;;;;;;;;;5024569;28;20045;-60
2023/03/07 01:31:51;;;;;;;54.78;16.85;;;;;;;;;;5006696;28;20278;-57
2023/03/07 01:34:16;;;;;;;53.85;17.80;;;;;;;;;;5022955;28;20041;-54
2023/03/07 01:36:42;;;;;;;46.22;17.20;;;;;;;;;;5024415;28;20112;-55
2023/03/07 01:39:12;;;;;;;57.22;18.17;;;;;;;;;;5022947;28;20048;-54
2023/03/07 01:41:40;;;;;;;56.88;17.52;;;;;;;;;;5025860;28;20131;-59
2023/03/07 01:44:21;;;;;;;50.60;16.75;;;;;;;;;;5022934;28;20026;-54
2023/03/07 01:46:46;;;;;;;53.67;17.38;;;;;;;;;;5023860;28;20032;-63
2023/03/07 01:49:24;;;;;;;47.28;16.10;;;;;;;;;;5024100;28;20033;-58
2023/03/07 01:51:57;;;;;;;49.65;16.90;;;;;;;;;;5024528;28;20048;-62
2023/03/07 01:54:23;;;;;;;48.00;17.70;;;;;;;;;;5020651;28;20090;-55
2023/03/07 01:56:49;;;;;;;59.95;17.00;;;;;;;;;;5022552;28;20414;-52
2023/03/07 01:59:17;;;;;;;49.70;17.10;;;;;;;;;;5023791;28;20029;-55
2023/03/07 02:01:42;;;;;;;47.63;16.77;;;;;;;;;;5021367;28;20029;-57
2023/03/07 02:04:10;;;;;;;51.55;17.15;;;;;;;;;;5025574;28;20050;-54
2023/03/07 02:06:36;;;;;;;48.30;15.98;;;;;;;;;;5022692;28;20025;-59
2023/03/07 02:09:03;;;;;;;49.45;17.40;;;;;;;;;;5032030;28;20041;-57
2023/03/07 02:11:29;;;;;;;57.53;17.65;;;;;;;;;;5022207;28;20112;-55
2023/03/07 02:13:54;;;;;;;45.60;15.32;;;;;;;;;;5025366;28;20622;-54
2023/03/07 02:16:20;;;;;;;53.67;17.95;;;;;;;;;;5030716;28;20041;-59
2023/03/07 02:18:48;;;;;;;50.40;16.90;;;;;;;;;;5024463;28;20045;-60
2023/03/07 02:21:37;;;;;;;45.28;17.75;;;;;;;;;;5026020;28;20041;-58
2023/03/07 02:24:23;;;;;;;43.88;15.55;;;;;;;;;;5014127;28;20143;-55
2023/03/07 02:26:50;;;;;;;48.13;16.25;;;;;;;;;;5016915;28;20038;-57
2023/03/07 02:29:15;;;;;;;44.05;15.48;;;;;;;;;;5020537;28;20652;-58
2023/03/07 02:31:43;;;;;;;51.80;16.45;;;;;;;;;;5014788;28;20030;-57
2023/03/07 02:34:23;;;;;;;42.67;15.80;;;;;;;;;;5021445;28;20060;-58
2023/03/07 02:36:57;;;;;;;50.70;17.38;;;;;;;;;;5007616;28;20045;-57
2023/03/07 02:39:24;;;;;;;54.85;17.05;;;;;;;;;;5021663;28;20075;-56
2023/03/07 02:41:53;;;;;;;43.35;13.35;;;;;;;;;;5003688;28;20075;-55
2023/03/07 02:44:26;;;;;;;49.05;16.50;;;;;;;;;;5022602;28;20065;-58
2023/03/07 02:46:51;;;;;;;52.08;16.27;;;;;;;;;;5022384;28;20057;-55
2023/03/07 02:49:18;;;;;;;50.10;14.77;;;;;;;;;;5019899;28;20037;-57
2023/03/07 02:51:44;;;;;;;47.58;17.67;;;;;;;;;;5004761;28;20111;-57
2023/03/07 02:54:09;;;;;;;46.85;16.20;;;;;;;;;;5022226;28;20033;-56
2023/03/07 02:56:35;;;;;;;52.63;16.35;;;;;;;;;;5021779;28;20116;-59
2023/03/07 02:59:00;;;;;;;50.53;16.83;;;;;;;;;;5021963;28;20037;-60
2023/03/07 03:01:26;;;;;;;52.92;16.85;;;;;;;;;;5023228;28;20116;-52
2023/03/07 03:03:51;;;;;;;44.55;15.95;;;;;;;;;;5021314;28;20032;-54
2023/03/07 03:06:16;;;;;;;32.17;12.18;;;;;;;;;;5027990;28;20149;-60
2023/03/07 03:08:42;;;;;;;54.85;18.33;;;;;;;;;;5020962;28;20026;-54
2023/03/07 03:11:07;;;;;;;51.95;16.20;;;;;;;;;;5007691;28;20037;-56
2023/03/07 03:13:34;;;;;;;50.20;16.98;;;;;;;;;;5020831;28;20109;-54
2023/03/07 03:15:59;;;;;;;60.40;19.80;;;;;;;;;;5036931;28;20120;-57
2023/03/07 03:18:28;;;;;;;48.83;17.98;;;;;;;;;;4989516;28;20104;-63
2023/03/07 03:20:54;;;;;;;53.67;17.95;;;;;;;;;;5023500;28;20469;-54
2023/03/07 03:23:19;;;;;;;57.72;18.10;;;;;;;;;;5030823;28;20118;-57
2023/03/07 03:25:45;;;;;;;54.33;17.77;;;;;;;;;;5023149;28;20167;-60
2023/03/07 03:28:12;;;;;;;56.78;18.05;;;;;;;;;;5007918;28;20390;-54
2023/03/07 03:30:38;;;;;;;50.47;17.80;;;;;;;;;;5007642;28;20045;-58
2023/03/07 03:33:03;;;;;;;51.63;17.80;;;;;;;;;;5036941;28;20045;-56
2023/03/07 03:35:30;;;;;;;55.00;18.73;;;;;;;;;;5020742;28;20478;-58
2023/03/07 03:37:55;;;;;;;55.03;16.70;;;;;;;;;;5023204;28;20059;-62
2023/03/07 03:40:20;;;;;;;55.20;16.60;;;;;;;;;;5023678;28;20056;-56
2023/03/07 03:42:46;;;;;;;48.45;16.83;;;;;;;;;;5025731;28;20036;-55
2023/03/07 03:45:16;;;;;;;;;;;;;;;;;;5012373;28;20137;-61
2023/03/07 03:47:41;;;;;;;55.20;17.50;;;;;;;;;;5023842;28;20425;-62
2023/03/07 03:50:08;;;;;;;52.50;17.20;;;;;;;;;;5035663;28;20049;-54
2023/03/07 03:52:36;;;;;;;52.88;17.67;;;;;;;;;;5026595;28;20025;-59
2023/03/07 03:55:01;;;;;;;52.53;16.65;;;;;;;;;;5026041;28;20068;-60
2023/03/07 03:57:27;;;;;;;53.60;16.90;;;;;;;;;;5024467;28;20061;-60
2023/03/07 03:59:54;;;;;;;47.40;17.10;;;;;;;;;;5023558;28;20485;-58
2023/03/07 04:02:21;;;;;;;51.38;17.20;;;;;;;;;;5022782;28;20030;-60
2023/03/07 04:04:46;;;;;;;64.53;19.70;;;;;;;;;;5025626;28;20061;-59
2023/03/07 04:07:11;;;;;;;51.53;17.40;;;;;;;;;;5027140;28;20033;-57
2023/03/07 04:09:36;;;;;;;50.17;17.52;;;;;;;;;;5025704;28;20285;-57
2023/03/07 04:12:02;;;;;;;51.55;17.95;;;;;;;;;;5022875;28;20421;-60
2023/03/07 04:14:28;;;;;;;52.13;16.77;;;;;;;;;;5020396;28;20087;-55
2023/03/07 04:16:53;;;;;;;52.90;18.20;;;;;;;;;;5022901;28;20063;-60
2023/03/07 04:19:18;;;;;;;46.60;16.73;;;;;;;;;;5025062;28;20039;-57
2023/03/07 04:21:44;;;;;;;56.10;17.75;;;;;;;;;;5015992;28;20025;-59
2023/03/07 04:24:10;;;;;;;57.38;19.15;;;;;;;;;;5031552;28;20037;-59
2023/03/07 04:26:35;;;;;;;61.45;19.20;;;;;;;;;;5026966;28;20422;-58
2023/03/07 04:29:01;;;;;;;52.60;18.30;;;;;;;;;;5025618;28;20849;-60
2023/03/07 04:31:32;;;;;;;45.35;16.60;;;;;;;;;;5023291;28;20499;-62
2023/03/07 04:34:00;;;;;;;62.22;18.50;;;;;;;;;;5035334;28;20176;-56
2023/03/07 04:36:25;;;;;;;54.72;18.05;;;;;;;;;;5024920;28;20401;-56
2023/03/07 04:38:51;;;;;;;54.33;18.10;;;;;;;;;;5025368;28;20052;-57
2023/03/07 04:41:18;;;;;;;49.10;18.70;;;;;;;;;;5026465;28;20033;-59
2023/03/07 04:43:45;;;;;;;45.50;16.63;;;;;;;;;;5029427;28;20463;-59
2023/03/07 04:46:12;;;;;;;48.00;16.90;;;;;;;;;;5025255;28;20036;-55
2023/03/07 04:48:37;;;;;;;51.28;17.63;;;;;;;;;;5033986;28;20171;-56
2023/03/07 04:51:03;;;;;;;50.70;18.00;;;;;;;;;;5023234;28;20805;-62
2023/03/07 04:53:28;;;;;;;56.85;18.55;;;;;;;;;;5021582;28;20025;-61
2023/03/07 04:55:56;;;;;;;51.58;17.63;;;;;;;;;;5025202;28;20033;-61
2023/03/07 04:58:21;;;;;;;59.88;20.20;;;;;;;;;;5026537;28;20037;-65
2023/03/07 05:00:46;;;;;;;50.22;17.35;;;;;;;;;;5024468;28;20090;-58
2023/03/07 05:03:13;;;;;;;50.42;17.92;;;;;;;;;;5031909;28;20108;-61
2023/03/07 05:05:38;;;;;;;47.72;16.50;;;;;;;;;;5043020;28;20369;-61
2023/03/07 05:08:04;;;;;;;49.10;17.98;;;;;;;;;;5023382;28;20033;-63
2023/03/07 05:10:30;;;;;;;51.63;17.73;;;;;;;;;;5025739;28;20382;-63
2023/03/07 05:12:55;;;;;;;57.72;19.83;;;;;;;;;;5027622;28;20021;-63
2023/03/07 05:15:21;;;;;;;58.47;19.38;;;;;;;;;;5023778;28;20394;-59
2023/03/07 05:17:46;;;;;;;62.70;20.10;;;;;;;;;;5029930;28;20041;-57
2023/03/07 05:20:12;;;;;;;50.65;17.83;;;;;;;;;;5025429;28;20041;-58
2023/03/07 05:22:37;;;;;;;51.97;17.48;;;;;;;;;;5015208;28;20143;-57
2023/03/07 05:25:04;;;;;;;57.13;18.23;;;;;;;;;;5022179;28;20113;-57
2023/03/07 05:27:29;;;;;;;49.78;16.88;;;;;;;;;;5033073;28;20454;-56
2023/03/07 05:29:54;;;;;;;57.65;19.52;;;;;;;;;;5000382;28;20044;-61
2023/03/07 05:32:20;;;;;;;56.15;17.55;;;;;;;;;;5002304;28;20064;-56
2023/03/07 05:34:47;;;;;;;64.15;19.23;;;;;;;;;;5022694;28;20037;-56
2023/03/07 05:37:12;;;;;;;54.78;19.27;;;;;;;;;;5023730;28;20033;-57
2023/03/07 05:39:38;;;;;;;78.45;23.10;;;;;;;;;;5023261;28;20048;-56
2023/03/07 05:42:03;;;;;;;67.47;19.88;;;;;;;;;;5023743;28;20120;-55
2023/03/07 05:44:29;;;;;;;56.28;18.75;;;;;;;;;;5021621;28;20124;-59
2023/03/07 05:46:55;;;;;;;49.58;18.67;;;;;;;;;;5023423;28;20119;-59
2023/03/07 05:49:20;;;;;;;58.72;19.38;;;;;;;;;;5019816;28;20359;-57
2023/03/07 05:51:45;;;;;;;57.90;19.02;;;;;;;;;;5022025;28;20060;-60
2023/03/07 05:54:11;;;;;;;55.47;16.90;;;;;;;;;;5022608;28;20041;-58
2023/03/07 05:56:36;;;;;;;52.70;17.73;;;;;;;;;;5023462;28;20517;-60
2023/03/07 05:59:02;;;;;;;54.97;18.52;;;;;;;;;;5005272;28;20136;-62
2023/03/07 06:01:28;;;;;;;56.97;19.33;;;;;;;;;;5038578;28;20110;-55
2023/03/07 06:03:55;;;;;;;52.42;18.17;;;;;;;;;;5020035;28;20026;-57
2023/03/07 06:06:20;;;;;;;50.53;17.88;;;;;;;;;;5025907;28;20052;-57
2023/03/07 06:08:46;;;;;;;45.35;16.77;;;;;;;;;;5024344;28;20025;-57
2023/03/07 06:11:11;;;;;;;64.20;19.15;;;;;;;;;;5020052;28;20576;-55
2023/03/07 06:13:37;;;;;;;65.55;19.95;;;;;;;;;;5016538;28;20413;-61
2023/03/07 06:16:04;;;;;;;50.35;18.25;;;;;;;;;;5023388;28;20033;-56
2023/03/07 06:18:29;;;;;;;58.97;17.88;;;;;;;;;;5021740;28;20083;-61
2023/03/07 06:20:59;;;;;;;47.88;17.23;;;;;;;;;;5022215;28;20041;-58
2023/03/07 06:23:27;;;;;;;57.55;17.75;;;;;;;;;;5023944;28;20501;-57
2023/03/07 06:25:53;;;;;;;54.80;17.65;;;;;;;;;;5031101;28;20033;-62
2023/03/07 06:28:18;;;;;;;52.55;16.85;;;;;;;;;;5007216;28;20519;-61
2023/03/07 06:30:44;;;;;;;62.00;18.98;;;;;;;;;;5021328;28;20037;-58
2023/03/07 06:33:09;;;;;;;55.13;18.00;;;;;;;;;;5017725;28;20087;-57
2023/03/07 06:35:37;;;;;;;57.50;18.58;;;;;;;;;;5026069;28;20025;-58
2023/03/07 06:38:02;;;;;;;53.67;17.55;;;;;;;;;;5037393;28;20072;-59
2023/03/07 06:40:28;;;;;;;63.08;18.48;;;;;;;;;;5021636;28;20152;-61
2023/03/07 06:42:53;;;;;;;56.35;19.52;;;;;;;;;;5009418;28;20025;-59
2023/03/07 06:45:18;;;;;;;58.88;20.10;;;;;;;;;;5021914;28;20469;-56
2023/03/07 06:47:44;;;;;;;63.35;19.27;;;;;;;;;;5018676;28;20552;-63
2023/03/07 06:50:10;;;;;;;52.20;19.20;;;;;;;;;;5019922;28;20128;-56
2023/03/07 06:52:36;;;;;;;51.47;19.48;;;;;;;;;;5030940;28;20565;-58
2023/03/07 06:55:02;;;;;;;54.13;18.80;;;;;;;;;;5022224;28;20030;-58
2023/03/07 06:57:29;;;;;;;58.30;18.80;;;;;;;;;;5024304;28;20113;-57
2023/03/07 06:59:54;;;;;;;55.63;18.50;;;;;;;;;;5024052;28;20437;-58
2023/03/07 07:02:20;;;;;;;50.15;18.50;;;;;;;;;;5014442;28;20028;-57
2023/03/07 07:04:45;;;;;;;58.67;17.63;;;;;;;;;;5014703;28;20079;-62
2023/03/07 07:07:11;;;;;;;50.15;17.45;;;;;;;;;;5023457;28;20044;-59
2023/03/07 07:09:36;;;;;;;57.20;19.13;;;;;;;;;;5021489;28;20542;-63
2023/03/07 07:12:03;;;;;;;50.22;17.05;;;;;;;;;;5020520;28;20049;-60
2023/03/07 07:14:29;;;;;;;49.55;17.20;;;;;;;;;;5024317;28;20329;-56
2023/03/07 07:16:54;;;;;;;50.25;15.43;;;;;;;;;;5029697;28;20025;-61
2023/03/07 07:19:20;;;;;;;54.85;17.27;;;;;;;;;;5029586;28;20130;-56
2023/03/07 07:21:46;;;;;;;51.53;17.38;;;;;;;;;;5029893;28;20029;-57
2023/03/07 07:24:11;;;;;;;48.33;17.13;;;;;;;;;;5029570;28;20057;-60
2023/03/07 07:26:37;;;;;;;59.33;19.42;;;;;;;;;;5031706;28;20478;-63
2023/03/07 07:29:02;;;;;;;49.35;17.77;;;;;;;;;;5029171;28;20052;-60
2023/03/07 07:31:28;;;;;;;46.70;16.95;;;;;;;;;;5029493;28;20052;-56
2023/03/07 07:33:53;;;;;;;49.95;16.60;;;;;;;;;;5026160;28;20037;-59
2023/03/07 07:36:19;;;;;;;50.83;17.08;;;;;;;;;;5024564;28;20029;-60
2023/03/07 07:38:45;;;;;;;47.50;14.80;;;;;;;;;;5039225;28;20025;-57
2023/03/07 07:41:11;;;;;;;53.28;18.13;;;;;;;;;;5022718;28;20700;-58
2023/03/07 07:43:36;;;;;;;53.13;16.73;;;;;;;;;;5024256;28;20033;-57
2023/03/07 07:46:10;;;;;;;50.13;20.77;;;;;;;;;;5012000;28;20088;-59
2023/03/07 07:48:37;;;;;;;56.10;16.40;;;;;;;;;;5022013;28;20459;-56
2023/03/07 07:51:03;;;;;;;51.15;17.25;;;;;;;;;;5030735;28;20045;-58
2023/03/07 07:53:29;;;;;;;46.03;16.15;;;;;;;;;;5021620;28;20433;-56
2023/03/07 07:55:54;;;;;;;50.28;16.63;;;;;;;;;;4999168;28;20033;-58
2023/03/07 07:58:20;;;;;;;45.60;15.63;;;;;;;;;;5026386;28;20033;-60
2023/03/07 08:00:46;;;;;;;47.67;16.90;;;;;;;;;;5024365;28;20041;-61
2023/03/07 08:03:11;;;;;;;42.38;15.65;;;;;;;;;;5025266;28;20266;-59
2023/03/07 08:05:37;;;;;;;39.35;14.73;;;;;;;;;;5022668;28;20692;-57
2023/03/07 08:08:02;;;;;;;47.65;15.40;;;;;;;;;;5022132;28;20029;-57
2023/03/07 08:10:28;;;;;;;44.63;15.13;;;;;;;;;;5023415;28;20045;-58
2023/03/07 08:12:53;;;;;;;49.70;16.92;;;;;;;;;;5024859;28;20494;-56
2023/03/07 08:15:22;;;;;;;48.15;15.68;;;;;;;;;;5023741;28;20371;-67
2023/03/07 08:17:49;;;;;;;47.60;16.27;;;;;;;;;;5026324;28;20025;-55
2023/03/07 08:20:14;;;;;;;42.22;15.23;;;;;;;;;;5024773;28;20107;-60
2023/03/07 08:22:40;;;;;;;49.53;15.70;;;;;;;;;;5028250;28;20049;-56
2023/03/07 08:25:06;;;;;;;44.17;16.05;;;;;;;;;;5025599;28;20041;-58
2023/03/07 08:27:31;;;;;;;47.78;15.70;;;;;;;;;;5025674;28;20041;-59
2023/03/07 08:29:57;;;;;;;41.67;15.35;;;;;;;;;;5024730;28;20042;-58
2023/03/07 08:32:23;;;;;;;43.70;16.27;;;;;;;;;;5024304;28;20766;-59
2023/03/07 08:34:48;;;;;;;43.50;17.73;;;;;;;;;;5026485;28;20033;-59
2023/03/07 08:37:13;;;;;;;39.50;15.23;;;;;;;;;;5024843;28;20037;-56
2023/03/07 08:39:38;;;;;;;40.20;14.27;;;;;;;;;;5025530;28;20041;-58
2023/03/07 08:42:04;;;;;;;37.40;13.82;;;;;;;;;;5026269;28;20045;-52
2023/03/07 08:44:29;;;;;;;39.58;15.00;;;;;;;;;;5024101;28;20021;-60
2023/03/07 08:46:54;;;;;;;34.28;12.05;;;;;;;;;;5024702;28;20521;-60
2023/03/07 08:49:20;;;;;;;40.03;14.65;;;;;;;;;;5022672;28;20029;-57
2023/03/07 08:51:48;;;;;;;37.75;14.45;;;;;;;;;;5023044;28;20076;-61
2023/03/07 08:54:13;;;;;;;49.15;14.88;;;;;;;;;;5024964;28;20033;-58
2023/03/07 08:56:39;;;;;;;36.83;15.98;;;;;;;;;;5025283;28;20509;-59
2023/03/07 08:59:04;;;;;;;47.50;15.13;;;;;;;;;;5025029;28;20087;-57
2023/03/07 09:01:29;;;;;;;35.58;13.80;;;;;;;;;;5022761;28;20072;-61
2023/03/07 09:03:55;;;;;;;31.42;11.18;;;;;;;;;;5024321;28;20030;-63
2023/03/07 09:06:21;;;;;;;43.63;13.75;;;;;;;;;;5025425;28;20128;-57
2023/03/07 09:08:46;;;;;;;40.42;13.55;;;;;;;;;;5024410;28;20116;-59
2023/03/07 09:11:12;;;;;;;33.03;12.77;;;;;;;;;;5025004;28;20025;-62
2023/03/07 09:13:38;;;;;;;41.63;14.75;;;;;;;;;;5026298;28;20195;-60
2023/03/07 09:16:04;;;;;;;46.45;15.48;;;;;;;;;;5025393;28;20725;-59
2023/03/07 09:18:29;;;;;;;38.53;14.50;;;;;;;;;;5023617;28;20033;-57
2023/03/07 09:20:57;;;;;;;37.90;15.38;;;;;;;;;;5025426;28;20033;-56
2023/03/07 09:23:22;;;;;;;34.28;12.25;;;;;;;;;;5022104;28;20136;-57
2023/03/07 09:25:47;;;;;;;34.92;13.55;;;;;;;;;;5023378;28;20037;-61
2023/03/07 09:28:13;;;;;;;38.53;14.10;;;;;;;;;;5022950;28;20544;-55
2023/03/07 09:30:38;;;;;;;45.47;14.27;;;;;;;;;;5023195;28;20049;-59
2023/03/07 09:33:04;;;;;;;38.17;14.82;;;;;;;;;;5023612;28;20105;-60
2023/03/07 09:35:29;;;;;;;34.80;13.23;;;;;;;;;;5024604;28;20033;-59
2023/03/07 09:37:54;;;;;;;44.30;14.45;;;;;;;;;;5025779;28;20029;-56
2023/03/07 09:40:24;;;;;;;42.35;15.85;;;;;;;;;;5024249;28;20033;-63
2023/03/07 09:42:55;;;;;;;49.78;17.42;;;;;;;;;;5014040;28;21040;-61
2023/03/07 09:45:34;;;;;;;36.08;14.48;;;;;;;;;;5026107;28;20501;-56
2023/03/07 09:48:21;;;;;;;38.95;13.75;;;;;;;;;;5027194;28;20041;-63
2023/03/07 09:50:51;;;;;;;36.20;12.70;;;;;;;;;;5021993;28;20048;-53
2023/03/07 09:53:35;;;;;;;29.00;10.90;;;;;;;;;;5022578;28;20041;-60
2023/03/07 09:56:01;;;;;;;30.13;12.23;;;;;;;;;;5009931;28;20078;-62
2023/03/07 09:58:27;;;;;;;33.03;11.67;;;;;;;;;;5022635;28;20724;-56
2023/03/07 10:00:56;;;;;;;35.10;13.15;;;;;;;;;;5020220;28;20423;-56
2023/03/07 10:03:34;;;;;;;35.55;13.32;;;;;;;;;;5021558;28;20044;-51
2023/03/07 10:06:08;;;;;;;33.22;12.70;;;;;;;;;;5023099;28;20025;-54
2023/03/07 10:08:33;;;;;;;24.38;9.00;;;;;;;;;;5021004;28;20723;-57
2023/03/07 10:11:07;;;;;;;25.85;9.73;;;;;;;;;;5022775;28;20053;-58
2023/03/07 10:13:52;;;;;;;27.63;9.57;;;;;;;;;;5017561;28;20113;-59
2023/03/07 10:16:22;;;;;;;24.50;9.52;;;;;;;;;;5011773;28;20112;-58
2023/03/07 10:19:01;;;;;;;27.83;10.32;;;;;;;;;;5019767;28;20394;-59
2023/03/07 10:21:33;;;;;;;27.88;9.93;;;;;;;;;;5021602;28;20069;-62
2023/03/07 10:24:07;;;;;;;24.33;9.00;;;;;;;;;;5021333;28;20044;-51
2023/03/07 10:26:39;;;;;;;20.25;8.48;;;;;;;;;;5022645;28;20770;-60
2023/03/07 10:29:23;;;;;;;26.48;8.38;;;;;;;;;;5019505;28;20105;-53
2023/03/07 10:32:01;;;;;;;29.02;10.15;;;;;;;;;;5021043;28;20603;-56
2023/03/07 10:34:27;;;;;;;22.63;8.93;;;;;;;;;;5036425;28;20502;-56
2023/03/07 10:37:19;;;;;;;25.73;10.00;;;;;;;;;;5023827;28;20075;-53
2023/03/07 10:40:02;;;;;;;22.10;8.50;;;;;;;;;;5017954;28;20081;-55
2023/03/07 10:42:32;;;;;;;16.55;6.88;;;;;;;;;;5021404;28;20079;-56
2023/03/07 10:44:57;;;;;;;19.88;8.32;;;;;;;;;;5021657;28;20032;-57
2023/03/07 10:47:24;;;;;;;20.92;8.10;;;;;;;;;;5021923;28;20029;-56
2023/03/07 10:49:52;;;;;;;23.75;8.27;;;;;;;;;;5018700;28;20434;-55
2023/03/07 10:52:17;;;;;;;20.88;8.88;;;;;;;;;;5024552;28;20034;-56
2023/03/07 10:54:42;;;;;;;26.50;9.15;;;;;;;;;;5026545;28;20041;-56
2023/03/07 10:57:11;;;;;;;29.73;10.48;;;;;;;;;;5025347;28;20497;-58
2023/03/07 10:59:37;;;;;;;28.38;9.52;;;;;;;;;;5025448;28;20453;-56
2023/03/07 11:02:23;;;;;;;30.98;10.40;;;;;;;;;;5025216;28;20045;-57
2023/03/07 11:04:48;;;;;;;22.15;8.57;;;;;;;;;;5027068;28;20093;-60
2023/03/07 11:07:33;;;;;;;22.58;8.80;;;;;;;;;;5022388;28;20029;-55
2023/03/07 11:09:59;;;;;;;25.75;9.82;;;;;;;;;;5025830;28;20101;-51
2023/03/07 11:12:26;;;;;;;25.52;9.82;;;;;;;;;;5023135;28;20847;-55
2023/03/07 11:14:57;;;;;;;24.30;9.57;;;;;;;;;;5025555;28;20032;-57
2023/03/07 11:17:25;;;;;;;28.50;10.82;;;;;;;;;;5027514;28;20136;-58
2023/03/07 11:19:54;;;;;;;36.88;11.82;;;;;;;;;;5019431;28;20043;-55
2023/03/07 11:22:20;;;;;;;31.45;11.10;;;;;;;;;;5027635;28;20033;-55
2023/03/07 11:25:08;;;;;;;32.28;12.57;;;;;;;;;;5022748;28;20500;-55
2023/03/07 11:27:36;;;;;;;27.50;10.82;;;;;;;;;;5021603;28;20451;-51
2023/03/07 11:30:19;;;;;;;31.58;9.93;;;;;;;;;;5026028;28;20033;-56
2023/03/07 11:32:57;;;;;;;23.70;10.02;;;;;;;;;;5023794;28;20136;-59
2023/03/07 11:35:41;;;;;;;31.20;11.90;;;;;;;;;;5026802;28;20166;-54
2023/03/07 11:38:19;;;;;;;27.65;11.65;;;;;;;;;;5022107;28;20037;-56
2023/03/07 11:40:51;;;;;;;23.95;9.98;;;;;;;;;;5022633;28;20052;-57
2023/03/07 11:43:21;;;;;;;28.08;10.13;;;;;;;;;;5023683;28;20033;-51
2023/03/07 11:45:55;;;;;;;28.42;11.60;;;;;;;;;;5024935;28;20052;-52
2023/03/07 11:48:39;;;;;;;29.35;11.07;;;;;;;;;;5026039;28;20458;-54
2023/03/07 11:51:05;;;;;;;31.88;11.70;;;;;;;;;;5022666;28;20037;-59
2023/03/07 11:53:36;;;;;;;30.45;12.50;;;;;;;;;;5023839;28;20033;-53
2023/03/07 11:56:01;;;;;;;28.02;11.15;;;;;;;;;;5024685;28;20037;-53
2023/03/07 11:58:45;;;;;;;27.45;10.60;;;;;;;;;;5024993;28;20904;-57
2023/03/07 12:01:27;;;;;;;31.77;11.63;;;;;;;;;;5025952;28;20033;-53
2023/03/07 12:04:15;;;;;;;28.02;10.35;;;;;;;;;;5025650;28;20647;-55
2023/03/07 12:06:48;;;;;;;26.63;11.20;;;;;;;;;;5024627;28;20093;-52
2023/03/07 12:09:32;;;;;;;20.40;9.32;;;;;;;;;;5023621;28;20490;-61
2023/03/07 12:11:58;;;;;;;28.27;9.98;;;;;;;;;;5025376;28;20061;-57
2023/03/07 12:14:42;;;;;;;25.45;10.50;;;;;;;;;;5024260;28;20513;-59
2023/03/07 12:17:07;;;;;;;28.42;11.85;;;;;;;;;;5026993;28;20045;-56
2023/03/07 12:19:35;;;;;;;30.17;11.25;;;;;;;;;;5024814;28;20648;-51
2023/03/07 12:22:01;;;;;;;34.03;11.70;;;;;;;;;;5022438;28;20025;-54
2023/03/07 12:24:29;;;;;;;29.83;10.88;;;;;;;;;;5025226;28;20468;-57
2023/03/07 12:26:56;;;;;;;30.20;11.43;;;;;;;;;;5039978;28;20067;-52
2023/03/07 12:29:30;;;;;;;31.10;12.10;;;;;;;;;;5025381;28;20041;-57
2023/03/07 12:31:58;;;;;;;34.45;12.90;;;;;;;;;;5025228;28;20398;-54
2023/03/07 12:34:29;;;;;;;34.25;13.55;;;;;;;;;;5026760;28;20406;-56
2023/03/07 12:36:57;;;;;;;27.55;11.55;;;;;;;;;;5025419;28;20040;-58
2023/03/07 12:39:36;;;;;;;22.73;10.13;;;;;;;;;;5023653;28;20445;-58
2023/03/07 12:42:04;;;;;;;17.38;8.45;;;;;;;;;;5025881;28;20053;-54
2023/03/07 12:44:42;;;;;;;15.68;6.97;;;;;;;;;;5025872;28;20033;-58
2023/03/07 12:47:07;;;;;;;;;;;;;;;;;;5012687;28;20462;-53
2023/03/07 12:49:32;;;;;;;25.57;9.43;;;;;;;;;;5024446;28;19966;-57
2023/03/07 12:52:03;;;;;;;32.25;10.57;;;;;;;;;;5022186;28;20634;-56
2023/03/07 12:54:33;;;;;;;29.30;10.57;;;;;;;;;;5023251;28;20060;-53
2023/03/07 12:57:18;;;;;;;28.33;9.90;;;;;;;;;;5024895;28;20033;-57
2023/03/07 12:59:43;;;;;;;21.90;9.48;;;;;;;;;;5023367;28;20040;-52
2023/03/07 13:02:27;;;;;;;25.40;9.18;;;;;;;;;;5024351;28;20029;-59
2023/03/07 13:04:53;;;;;;;18.92;8.52;;;;;;;;;;5023283;28;20383;-65
2023/03/07 13:07:23;;;;;;;26.13;10.35;;;;;;;;;;5025293;28;20033;-55
2023/03/07 13:09:50;;;;;;;25.88;10.48;;;;;;;;;;5026325;28;20044;-55
2023/03/07 13:12:17;;;;;;;21.02;8.57;;;;;;;;;;5027970;28;20084;-57
2023/03/07 13:14:49;;;;;;;20.15;8.05;;;;;;;;;;5033040;28;20083;-61
2023/03/07 13:17:29;;;;;;;24.55;10.15;;;;;;;;;;5030038;28;20033;-57
2023/03/07 13:19:56;;;;;;;23.33;10.30;;;;;;;;;;5025308;28;20129;-52
2023/03/07 13:22:21;;;;;;;33.95;9.98;;;;;;;;;;5027985;28;20457;-56
2023/03/07 13:24:47;;;;;;;17.58;7.93;;;;;;;;;;5027042;28;20563;-57
2023/03/07 13:27:12;;;;;;;15.23;6.88;;;;;;;;;;5028948;28;20029;-55
2023/03/07 13:29:56;;;;;;;22.42;9.90;;;;;;;;;;5027821;28;20045;-55
2023/03/07 13:32:51;;;;;;;27.27;11.07;;;;;;;;;;5028496;28;20485;-58
2023/03/07 13:35:28;;;;;;;30.70;10.27;;;;;;;;;;5026602;28;20041;-55
2023/03/07 13:37:55;;;;;;;25.17;10.00;;;;;;;;;;5028769;28;20029;-56
2023/03/07 13:40:29;;;;;;;23.23;10.35;;;;;;;;;;5027554;28;20052;-54
2023/03/07 13:42:55;;;;;;;26.90;9.98;;;;;;;;;;5029844;28;20418;-58
2023/03/07 13:45:38;;;;;;;24.85;9.07;;;;;;;;;;5026014;28;20025;-54
2023/03/07 13:48:09;;;;;;;24.98;9.55;;;;;;;;;;5026321;28;20033;-55
2023/03/07 13:50:34;;;;;;;26.13;10.60;;;;;;;;;;5025993;28;20041;-57
2023/03/07 13:53:01;;;;;;;20.33;9.02;;;;;;;;;;5026076;28;20072;-56
2023/03/07 13:55:27;;;;;;;27.57;10.93;;;;;;;;;;5025488;28;20406;-57
2023/03/07 13:57:54;;;;;;;24.43;9.60;;;;;;;;;;5026143;28;20111;-54
2023/03/07 14:00:23;;;;;;;21.07;9.33;;;;;;;;;;5025930;28;20363;-53
2023/03/07 14:02:52;;;;;;;25.80;9.63;;;;;;;;;;5026655;28;20500;-53
2023/03/07 14:05:17;;;;;;;;;;;;;;;;;;5026209;28;20040;-53
2023/03/07 14:07:42;;;;;;;24.90;9.60;;;;;;;;;;5026685;28;19909;-55
2023/03/07 14:10:26;;;;;;;23.45;10.32;;;;;;;;;;5025980;28;21199;-55
2023/03/07 14:13:03;;;;;;;25.88;10.65;;;;;;;;;;5026805;28;20478;-56
2023/03/07 14:15:29;;;;;;;;;;;;;;;;;;5029165;28;20029;-55
2023/03/07 14:18:09;;;;;;;22.52;8.70;;;;;;;;;;5026137;28;19917;-54
2023/03/07 14:20:50;;;;;;;23.13;9.70;;;;;;;;;;5025441;28;20029;-55
2023/03/07 14:23:18;;;;;;;20.27;10.25;;;;;;;;;;5014561;28;20046;-56
2023/03/07 14:25:47;;;;;;;22.80;9.75;;;;;;;;;;5025665;28;20113;-55
2023/03/07 14:28:19;;;;;;;25.33;9.25;;;;;;;;;;5026145;28;20108;-56